createdAt,value
2023-11-04T00:00:00.959Z,99709.10
2023-11-04T00:02:30.059Z,99704.90
2023-11-04T00:04:58.249Z,99701.19
2023-11-04T00:07:26.513Z,99709.52
2023-11-04T00:09:57.084Z,99707.58
2023-11-04T00:12:26.586Z,99701.61
2023-11-04T00:14:54.764Z,99700.20
2023-11-04T00:17:22.919Z,99697.92
2023-11-04T00:19:51.053Z,99693.70
2023-11-04T00:22:19.251Z,99700.48
2023-11-04T00:24:50.904Z,99694.65
2023-11-04T00:27:19.368Z,99699.80
2023-11-04T00:29:48.556Z,99704.23
2023-11-04T00:32:16.685Z,99706.89
2023-11-04T00:34:44.897Z,99719.42
2023-11-04T00:37:13.050Z,99720.70
2023-11-04T00:39:41.309Z,99715.05
2023-11-04T00:42:09.939Z,99715.45
2023-11-04T00:44:38.085Z,99714.41
2023-11-04T00:47:06.451Z,99704.70
2023-11-04T00:49:35.055Z,99687.42
2023-11-04T00:52:03.279Z,99682.31
2023-11-04T00:54:31.468Z,99695.04
2023-11-04T00:56:59.744Z,99709.34
2023-11-04T00:59:27.888Z,99711.64
2023-11-04T01:01:56.014Z,99709.70
2023-11-04T01:04:24.290Z,99710.73
2023-11-04T01:06:52.597Z,99720.95
2023-11-04T01:09:20.854Z,99733.83
2023-11-04T01:11:50.589Z,99734.33
2023-11-04T01:14:18.855Z,99722.85
2023-11-04T01:16:46.988Z,99715.75
2023-11-04T01:19:15.157Z,99720.36
2023-11-04T01:21:43.415Z,99724.77
2023-11-04T01:24:11.968Z,99724.77
2023-11-04T01:26:40.441Z,99729.34
2023-11-04T01:29:11.808Z,99727.44
2023-11-04T01:31:39.954Z,99723.92
2023-11-04T01:34:08.321Z,99730.64
2023-11-04T01:36:36.732Z,99746.23
2023-11-04T01:39:05.299Z,99752.08
2023-11-04T01:41:33.435Z,99756.32
2023-11-04T01:44:02.280Z,99748.70
2023-11-04T01:46:30.622Z,99736.20
2023-11-04T01:48:59.228Z,99734.08
2023-11-04T01:51:30.426Z,99720.16
2023-11-04T01:53:59.811Z,99725.09
2023-11-04T01:56:35.850Z,99733.45
2023-11-04T01:59:04.748Z,99744.39
2023-11-04T02:01:36.132Z,99755.55
2023-11-04T02:04:04.812Z,99769.52
2023-11-04T02:06:33.230Z,99798.33
2023-11-04T02:09:01.801Z,99800.09
2023-11-04T02:11:30.976Z,99791.84
2023-11-04T02:13:59.283Z,99786.17
2023-11-04T02:16:27.463Z,99785.14
2023-11-04T02:18:56.505Z,99783.59
2023-11-04T02:21:25.001Z,99779.17
2023-11-04T02:23:53.447Z,99774.79
2023-11-04T02:26:22.959Z,99768.26
2023-11-04T02:28:51.164Z,99766.86
2023-11-04T02:31:19.279Z,99783.27
2023-11-04T02:33:47.540Z,99781.16
2023-11-04T02:36:16.148Z,99787.33
2023-11-04T02:38:44.307Z,99798.94
2023-11-04T02:41:12.510Z,99801.39
2023-11-04T02:43:40.765Z,99800.30
2023-11-04T02:46:08.926Z,99802.59
2023-11-04T02:48:37.191Z,99788.96
2023-11-04T02:51:06.131Z,99770.23
2023-11-04T02:53:34.338Z,99767.07
2023-11-04T02:56:02.479Z,99768.83
2023-11-04T02:58:30.620Z,99773.10
2023-11-04T03:01:01.136Z,99766.05
2023-11-04T03:03:29.857Z,99759.69
2023-11-04T03:05:58.738Z,99757.58
2023-11-04T03:08:27.509Z,99750.34
2023-11-04T03:10:55.787Z,99740.84
2023-11-04T03:13:23.955Z,99735.23
2023-11-04T03:15:52.323Z,99715.83
2023-11-04T03:18:20.778Z,99708.42
2023-11-04T03:20:49.111Z,99712.83
2023-11-04T03:23:17.245Z,99699.79
2023-11-04T03:25:45.496Z,99682.86
2023-11-04T03:28:13.658Z,99681.13
2023-11-04T03:30:41.815Z,99671.09
2023-11-04T03:33:11.338Z,99674.30
2023-11-04T03:35:39.641Z,99684.19
2023-11-04T03:38:08.598Z,99689.33
2023-11-04T03:40:36.780Z,99678.45
2023-11-04T03:43:04.926Z,99664.84
2023-11-04T03:45:33.054Z,99665.55
2023-11-04T03:48:01.441Z,99674.23
2023-11-04T03:50:29.842Z,99675.83
2023-11-04T03:52:58.103Z,99675.14
2023-11-04T03:55:26.719Z,99663.34
2023-11-04T03:57:54.964Z,99664.62
2023-11-04T04:00:23.140Z,99660.55
2023-11-04T04:02:52.414Z,99653.85
2023-11-04T04:05:21.097Z,99654.57
2023-11-04T04:07:50.776Z,99661.63
2023-11-04T04:10:19.256Z,99673.80
2023-11-04T04:12:49.254Z,99674.69
2023-11-04T04:15:17.540Z,99680.31
2023-11-04T04:17:45.820Z,99680.09
2023-11-04T04:20:15.581Z,99670.20
2023-11-04T04:22:43.752Z,99668.78
2023-11-04T04:25:11.900Z,99679.02
2023-11-04T04:27:40.085Z,99688.91
2023-11-04T04:30:09.473Z,99694.20
2023-11-04T04:32:37.833Z,99701.10
2023-11-04T04:35:06.414Z,99695.45
2023-11-04T04:37:36.032Z,99689.65
2023-11-04T04:40:06.448Z,99692.48
2023-11-04T04:42:34.652Z,99688.41
2023-11-04T04:45:03.434Z,99674.52
2023-11-04T04:47:31.700Z,99664.63
2023-11-04T04:49:59.945Z,99658.49
2023-11-04T04:52:28.123Z,99660.81
2023-11-04T04:54:56.273Z,99669.66
2023-11-04T04:57:24.508Z,99668.99
2023-11-04T04:59:53.052Z,99668.15
2023-11-04T05:02:21.324Z,99671.70
2023-11-04T05:04:49.596Z,99670.81
2023-11-04T05:07:17.767Z,99669.63
2023-11-04T05:09:46.027Z,99672.63
2023-11-04T05:12:14.187Z,99684.46
2023-11-04T05:14:42.356Z,99693.13
2023-11-04T05:17:11.132Z,99702.84
2023-11-04T05:19:39.253Z,99706.45
2023-11-04T05:22:08.163Z,99701.52
2023-11-04T05:24:37.116Z,99702.05
2023-11-04T05:27:05.470Z,99712.99
2023-11-04T05:29:34.014Z,99717.08
2023-11-04T05:32:02.130Z,99701.52
2023-11-04T05:34:30.301Z,99698.54
2023-11-04T05:36:58.523Z,99702.97
2023-11-04T05:39:27.280Z,99695.54
2023-11-04T05:41:55.470Z,99688.31
2023-11-04T05:44:23.625Z,99690.05
2023-11-04T05:46:51.744Z,99684.92
2023-11-04T05:49:19.970Z,99686.67
2023-11-04T05:51:48.364Z,99691.94
2023-11-04T05:54:17.332Z,99689.44
2023-11-04T05:56:45.557Z,99685.16
2023-11-04T05:59:13.782Z,99678.79
2023-11-04T06:01:41.909Z,99680.91
2023-11-04T06:04:11.606Z,99684.08
2023-11-04T06:06:39.994Z,99687.77
2023-11-04T06:09:09.225Z,99693.77
2023-11-04T06:11:37.474Z,99685.70
2023-11-04T06:14:05.703Z,99697.68
2023-11-04T06:16:35.386Z,99709.01
2023-11-04T06:19:03.695Z,99730.53
2023-11-04T06:21:31.908Z,99738.84
2023-11-04T06:24:00.082Z,99745.54
2023-11-04T06:26:28.256Z,99748.38
2023-11-04T06:28:56.365Z,99741.50
2023-11-04T06:31:24.587Z,99733.23
2023-11-04T06:33:52.928Z,99727.05
2023-11-04T06:36:21.495Z,99731.31
2023-11-04T06:38:49.722Z,99738.53
2023-11-04T06:41:21.377Z,99749.31
2023-11-04T06:43:51.030Z,99752.13
2023-11-04T06:46:19.454Z,99745.82
2023-11-04T06:48:48.646Z,99754.30
2023-11-04T06:51:20.843Z,99754.98
2023-11-04T06:53:50.182Z,99742.30
2023-11-04T06:56:18.402Z,99727.85
2023-11-04T06:58:46.554Z,99720.76
2023-11-04T07:01:16.311Z,99717.25
2023-11-04T07:03:48.723Z,99715.49
2023-11-04T07:06:19.048Z,99714.95
2023-11-04T07:08:47.930Z,99709.48
2023-11-04T07:11:18.181Z,99708.07
2023-11-04T07:13:46.874Z,99712.47
2023-11-04T07:16:16.125Z,99714.72
2023-11-04T07:18:44.996Z,99717.69
2023-11-04T07:21:13.615Z,99720.14
2023-11-04T07:23:42.877Z,99719.56
2023-11-04T07:26:11.102Z,99726.59
2023-11-04T07:28:39.565Z,99729.06
2023-11-04T07:31:08.501Z,99725.44
2023-11-04T07:33:38.016Z,99713.61
2023-11-04T07:36:07.086Z,99704.04
2023-11-04T07:38:35.285Z,99695.39
2023-11-04T07:41:03.907Z,99698.56
2023-11-04T07:43:33.734Z,99703.30
2023-11-04T07:46:02.885Z,99706.95
2023-11-04T07:48:31.372Z,99718.94
2023-11-04T07:51:00.501Z,99723.89
2023-11-04T07:53:29.393Z,99728.27
2023-11-04T07:55:57.577Z,99718.54
2023-11-04T07:58:25.773Z,99713.96
2023-11-04T08:00:55.400Z,99719.96
2023-11-04T08:03:24.792Z,99729.31
2023-11-04T08:05:54.783Z,99714.27
2023-11-04T08:08:23.604Z,99702.05
2023-11-04T08:10:51.919Z,99699.02
2023-11-04T08:13:21.443Z,99689.33
2023-11-04T08:15:49.632Z,99673.80
2023-11-04T08:18:18.182Z,99668.14
2023-11-04T08:20:46.465Z,99658.80
2023-11-04T08:23:14.687Z,99650.48
2023-11-04T08:25:42.916Z,99635.83
2023-11-04T08:28:11.157Z,99629.31
2023-11-04T08:30:39.981Z,99631.75
2023-11-04T08:33:08.413Z,99641.99
2023-11-04T08:35:36.658Z,99642.50
2023-11-04T08:38:05.016Z,99623.41
2023-11-04T08:40:33.330Z,99615.09
2023-11-04T08:43:01.571Z,99598.11
2023-11-04T08:45:29.811Z,99586.04
2023-11-04T08:47:58.109Z,99574.83
2023-11-04T08:50:28.744Z,99566.75
2023-11-04T08:52:56.952Z,99561.70
2023-11-04T08:55:25.124Z,99560.55
2023-11-04T08:57:53.341Z,99560.29
2023-11-04T09:00:21.614Z,99548.52
2023-11-04T09:02:50.830Z,99529.13
2023-11-04T09:05:25.306Z,99511.29
2023-11-04T09:07:59.380Z,99518.34
2023-11-04T09:10:27.538Z,99516.61
2023-11-04T09:12:56.537Z,99518.56
2023-11-04T09:15:24.936Z,99512.55
2023-11-04T09:17:53.224Z,99514.84
2023-11-04T09:20:21.957Z,99513.80
2023-11-04T09:22:50.236Z,99506.98
2023-11-04T09:25:18.805Z,99503.06
2023-11-04T09:27:47.061Z,99497.61
2023-11-04T09:30:18.288Z,99510.99
2023-11-04T09:32:46.515Z,99500.45
2023-11-04T09:35:14.921Z,99488.85
2023-11-04T09:37:44.288Z,99494.87
2023-11-04T09:40:13.894Z,99501.65
2023-11-04T09:42:45.965Z,99495.02
2023-11-04T09:45:17.128Z,99494.95
2023-11-04T09:47:45.363Z,99507.81
2023-11-04T09:50:14.004Z,99512.02
2023-11-04T09:52:46.891Z,99513.20
2023-11-04T09:55:16.835Z,99496.20
2023-11-04T09:57:46.338Z,99476.06
2023-11-04T10:00:18.091Z,99468.97
2023-11-04T10:02:46.647Z,99470.06
2023-11-04T10:05:15.468Z,99466.88
2023-11-04T10:07:44.857Z,99470.79
2023-11-04T10:10:22.350Z,99463.95
2023-11-04T10:12:57.978Z,99458.00
2023-11-04T10:15:26.852Z,99456.42
2023-11-04T10:17:55.990Z,99456.79
2023-11-04T10:20:24.892Z,99457.20
2023-11-04T10:22:53.103Z,99463.22
2023-11-04T10:25:22.196Z,99472.61
2023-11-04T10:27:50.386Z,99472.80
2023-11-04T10:30:18.682Z,99471.40
2023-11-04T10:32:50.475Z,99473.38
2023-11-04T10:35:19.874Z,99460.66
2023-11-04T10:37:52.280Z,99442.81
2023-11-04T10:40:22.444Z,99424.65
2023-11-04T10:43:15.955Z,99423.30
2023-11-04T10:45:50.298Z,99447.72
2023-11-04T10:48:27.402Z,99450.59
2023-11-04T10:51:04.550Z,99446.02
2023-11-04T10:53:48.123Z,99448.36
2023-11-04T10:56:32.885Z,99458.48
2023-11-04T10:59:19.730Z,99458.33
2023-11-04T11:01:48.683Z,99450.98
2023-11-04T11:04:19.015Z,99451.05
2023-11-04T11:06:48.639Z,99441.39
2023-11-04T11:09:20.467Z,99468.47
2023-11-04T11:12:06.374Z,99448.91
2023-11-04T11:14:38.268Z,99459.77
2023-11-04T11:17:09.872Z,99436.38
2023-11-04T11:19:52.882Z,99421.31
2023-11-04T11:22:26.012Z,99388.91
2023-11-04T11:24:59.193Z,99416.06
2023-11-04T11:27:27.529Z,99404.66
2023-11-04T11:29:57.983Z,99381.41
2023-11-04T11:32:36.255Z,99396.17
2023-11-04T11:35:09.025Z,99395.53
2023-11-04T11:37:38.117Z,99393.79
2023-11-04T11:40:14.798Z,99404.08
2023-11-04T11:42:43.249Z,99405.38
2023-11-04T11:45:11.556Z,99418.73
2023-11-04T11:47:40.658Z,99388.60
2023-11-04T11:50:09.274Z,99386.58
2023-11-04T11:52:37.466Z,99412.06
2023-11-04T11:55:09.451Z,99404.13
2023-11-04T11:57:37.823Z,99396.52
2023-11-04T12:00:07.220Z,99391.80
2023-11-04T12:02:41.614Z,99317.95
2023-11-04T12:05:11.029Z,99283.71
2023-11-04T12:07:40.658Z,99320.64
2023-11-04T12:10:10.104Z,99317.80
2023-11-04T12:12:39.375Z,99285.54
2023-11-04T12:15:12.441Z,99265.09
2023-11-04T12:17:41.966Z,99260.56
2023-11-04T12:20:18.202Z,99280.55
2023-11-04T12:22:46.465Z,99275.62
2023-11-04T12:25:16.233Z,99249.67
2023-11-04T12:27:46.963Z,99227.60
2023-11-04T12:30:19.469Z,99213.14
2023-11-04T12:32:59.766Z,99216.19
2023-11-04T12:35:27.981Z,99215.70
2023-11-04T12:37:57.333Z,99203.16
2023-11-04T12:40:32.163Z,99206.17
2023-11-04T12:43:04.666Z,99227.75
2023-11-04T12:45:34.276Z,99246.13
2023-11-04T12:48:03.212Z,99243.86
2023-11-04T12:50:32.332Z,99242.64
2023-11-04T12:53:04.609Z,99244.27
2023-11-04T12:55:32.740Z,99251.89
2023-11-04T12:58:01.832Z,99247.48
2023-11-04T13:00:31.168Z,99242.95
2023-11-04T13:03:01.240Z,99244.42
2023-11-04T13:05:29.576Z,99234.23
2023-11-04T13:07:58.391Z,99230.05
2023-11-04T13:10:27.091Z,99213.77
2023-11-04T13:12:55.708Z,99218.27
2023-11-04T13:15:24.432Z,99187.57
2023-11-04T13:17:52.624Z,99165.17
2023-11-04T13:20:21.285Z,99172.50
2023-11-04T13:22:49.721Z,99158.74
2023-11-04T13:25:17.927Z,99163.38
2023-11-04T13:27:46.457Z,99282.09
2023-11-04T13:34:39.435Z,99438.66
2023-11-04T13:37:07.711Z,99435.20
2023-11-04T13:39:35.938Z,99362.59
2023-11-04T13:42:04.241Z,99327.83
2023-11-04T13:44:32.388Z,99340.52
2023-11-04T13:47:00.895Z,99339.98
2023-11-04T13:49:29.209Z,99313.67
2023-11-04T13:51:58.006Z,99269.69
2023-11-04T13:54:26.173Z,99256.11
2023-11-04T13:56:57.810Z,99244.50
2023-11-04T13:59:25.993Z,99247.73
2023-11-04T14:01:54.637Z,99282.02
2023-11-04T14:04:23.023Z,99299.33
2023-11-04T14:06:51.390Z,99286.27
2023-11-04T14:09:19.609Z,99273.23
2023-11-04T14:11:47.823Z,99249.23
2023-11-04T14:14:15.993Z,99222.29
2023-11-04T14:16:44.913Z,99204.82
2023-11-04T14:19:13.164Z,99175.56
2023-11-04T14:21:41.689Z,99160.21
2023-11-04T14:24:10.270Z,99192.94
2023-11-04T14:26:41.097Z,99196.87
2023-11-04T14:29:09.600Z,99184.16
2023-11-04T14:31:37.757Z,99175.02
2023-11-04T14:34:06.040Z,99165.17
2023-11-04T14:36:34.171Z,99166.42
2023-11-04T14:39:04.830Z,99159.41
2023-11-04T14:41:34.137Z,99161.36
2023-11-04T14:44:03.958Z,99161.59
2023-11-04T14:46:32.107Z,99171.85
2023-11-04T14:49:02.552Z,99179.70
2023-11-04T14:51:30.829Z,99175.85
2023-11-04T14:53:59.046Z,99194.23
2023-11-04T14:56:27.227Z,99195.69
2023-11-04T14:58:55.355Z,99194.45
2023-11-04T15:01:23.500Z,99192.00
2023-11-04T15:03:51.691Z,99178.05
2023-11-04T15:06:20.202Z,99163.41
2023-11-04T15:08:50.270Z,99154.95
2023-11-04T15:11:20.235Z,99149.65
2023-11-04T15:13:48.625Z,99146.63
2023-11-04T15:16:16.816Z,99147.16
2023-11-04T15:18:45.113Z,99145.34
2023-11-04T15:21:14.610Z,99141.48
2023-11-04T15:23:43.341Z,99136.17
2023-11-04T15:26:11.658Z,99129.48
2023-11-04T15:28:39.913Z,99116.27
2023-11-04T15:31:08.325Z,99101.27
2023-11-04T15:33:36.572Z,99092.86
2023-11-04T15:36:05.470Z,99093.77
2023-11-04T15:38:34.519Z,99096.08
2023-11-04T15:41:02.787Z,99102.50
2023-11-04T15:43:30.939Z,99092.64
2023-11-04T15:45:59.111Z,99085.95
2023-11-04T15:48:27.872Z,99074.86
2023-11-04T15:50:56.345Z,99061.30
2023-11-04T15:53:24.588Z,99066.45
2023-11-04T15:55:55.634Z,99061.54
2023-11-04T15:58:28.161Z,99070.92
2023-11-04T16:00:58.122Z,99064.23
2023-11-04T16:03:26.360Z,99049.27
2023-11-04T16:05:55.313Z,99048.41
2023-11-04T16:08:23.926Z,99053.56
2023-11-04T16:10:52.152Z,99044.96
2023-11-04T16:13:21.054Z,99052.21
2023-11-04T16:15:49.368Z,99063.54
2023-11-04T16:18:17.615Z,99068.14
2023-11-04T16:20:45.847Z,99072.58
2023-11-04T16:23:14.280Z,99085.30
2023-11-04T16:25:42.530Z,99096.29
2023-11-04T16:28:11.371Z,99090.85
2023-11-04T16:30:39.684Z,99082.58
2023-11-04T16:33:07.979Z,99087.02
2023-11-04T16:35:36.195Z,99077.65
2023-11-04T16:38:07.408Z,99062.31
2023-11-04T16:40:35.917Z,99038.84
2023-11-04T16:43:04.431Z,99020.11
2023-11-04T16:45:32.934Z,99072.19
2023-11-04T16:48:01.218Z,99095.14
2023-11-04T16:50:31.765Z,99073.91
2023-11-04T16:53:00.532Z,99065.25
2023-11-04T16:55:28.727Z,99090.29
2023-11-04T16:57:56.922Z,99105.09
2023-11-04T17:00:25.237Z,99120.06
2023-11-04T17:02:53.491Z,99123.27
2023-11-04T17:05:21.831Z,99120.09
2023-11-04T17:07:50.111Z,99107.36
2023-11-04T17:10:18.513Z,99123.99
2023-11-04T17:12:46.773Z,99157.58
2023-11-04T17:15:16.407Z,99150.86
2023-11-04T17:17:44.611Z,99121.34
2023-11-04T17:20:12.827Z,99125.09
2023-11-04T17:22:41.041Z,99150.36
2023-11-04T17:25:09.584Z,99157.61
2023-11-04T17:27:38.796Z,99168.39
2023-11-04T17:30:07.543Z,99163.84
2023-11-04T17:32:36.049Z,99147.58
2023-11-04T17:35:07.308Z,99128.56
2023-11-04T17:37:37.079Z,99151.73
2023-11-04T17:40:06.054Z,99161.27
2023-11-04T17:42:36.828Z,99164.28
2023-11-04T17:45:05.583Z,99171.91
2023-11-04T17:47:33.912Z,99173.69
2023-11-04T17:50:02.889Z,99165.41
2023-11-04T17:52:31.065Z,99153.08
2023-11-04T17:54:59.262Z,99142.52
2023-11-04T17:57:27.461Z,99135.15
2023-11-04T17:59:56.688Z,99137.63
2023-11-04T18:02:25.014Z,99144.87
2023-11-04T18:04:54.101Z,99153.89
2023-11-04T18:07:24.447Z,99145.06
2023-11-04T18:09:52.880Z,99147.02
2023-11-04T18:12:21.031Z,99160.63
2023-11-04T18:14:49.198Z,99163.77
2023-11-04T18:17:17.392Z,99158.49
2023-11-04T18:19:45.747Z,99166.25
2023-11-04T18:22:14.102Z,99175.94
2023-11-04T18:24:42.344Z,99177.83
2023-11-04T18:27:10.594Z,99167.55
2023-11-04T18:29:39.003Z,99166.30
2023-11-04T18:32:07.955Z,99164.89
2023-11-04T18:34:36.418Z,99151.44
2023-11-04T18:37:04.666Z,99146.84
2023-11-04T18:39:33.712Z,99139.43
2023-11-04T18:42:03.055Z,99142.98
2023-11-04T18:44:31.840Z,99150.41
2023-11-04T18:47:00.131Z,99165.23
2023-11-04T18:49:28.362Z,99179.88
2023-11-04T18:51:57.285Z,99197.05
2023-11-04T18:54:25.494Z,99205.89
2023-11-04T18:56:53.620Z,99218.45
2023-11-04T18:59:21.786Z,99216.86
2023-11-04T19:01:51.715Z,99219.90
2023-11-04T19:04:20.029Z,99225.90
2023-11-04T19:06:48.282Z,99229.29
2023-11-04T19:09:17.158Z,99214.98
2023-11-04T19:11:46.246Z,99234.08
2023-11-04T19:14:14.460Z,99234.79
2023-11-04T19:16:43.109Z,99236.04
2023-11-04T19:19:11.320Z,99233.24
2023-11-04T19:21:40.677Z,99228.51
2023-11-04T19:24:09.015Z,99228.84
2023-11-04T19:26:37.340Z,99230.47
2023-11-04T19:29:05.683Z,99234.20
2023-11-04T19:31:33.877Z,99235.61
2023-11-04T19:34:02.201Z,99235.79
2023-11-04T19:36:30.420Z,99243.71
2023-11-04T19:38:59.022Z,99249.93
2023-11-04T19:41:27.132Z,99251.34
2023-11-04T19:43:55.280Z,99248.77
2023-11-04T19:46:25.841Z,99248.55
2023-11-04T19:48:55.760Z,99255.85
2023-11-04T19:51:24.013Z,99260.42
2023-11-04T19:53:52.165Z,99266.23
2023-11-04T19:56:20.306Z,99255.08
2023-11-04T19:58:48.451Z,99249.95
2023-11-04T20:01:16.719Z,99251.16
2023-11-04T20:03:44.959Z,99243.38
2023-11-04T20:06:13.321Z,99250.60
2023-11-04T20:08:42.341Z,99249.55
2023-11-04T20:11:10.558Z,99254.83
2023-11-04T20:13:38.674Z,99264.38
2023-11-04T20:16:07.561Z,99271.96
2023-11-04T20:18:35.803Z,99271.97
2023-11-04T20:21:04.644Z,99265.79
2023-11-04T20:23:32.844Z,99258.21
2023-11-04T20:26:00.991Z,99259.27
2023-11-04T20:28:29.452Z,99265.30
2023-11-04T20:30:57.837Z,99260.36
2023-11-04T20:33:26.139Z,99261.11
2023-11-04T20:35:56.036Z,99277.20
2023-11-04T20:38:25.079Z,99289.39
2023-11-04T20:40:53.277Z,99298.60
2023-11-04T20:43:23.087Z,99292.95
2023-11-04T20:45:51.313Z,99290.36
2023-11-04T20:48:19.539Z,99296.56
2023-11-04T20:50:47.732Z,99297.30
2023-11-04T20:53:15.914Z,99304.37
2023-11-04T20:55:44.156Z,99320.13
2023-11-04T20:58:12.498Z,99330.73
2023-11-04T21:00:41.447Z,99337.63
2023-11-04T21:03:09.585Z,99343.14
2023-11-04T21:05:39.939Z,99350.79
2023-11-04T21:08:08.653Z,99347.41
2023-11-04T21:10:36.913Z,99347.43
2023-11-04T21:13:05.378Z,99350.27
2023-11-04T21:15:33.537Z,99348.17
2023-11-04T21:18:02.817Z,99358.23
2023-11-04T21:20:31.188Z,99376.63
2023-11-04T21:22:59.434Z,99384.59
2023-11-04T21:25:27.688Z,99386.36
2023-11-04T21:27:56.326Z,99386.88
2023-11-04T21:30:24.701Z,99388.62
2023-11-04T21:32:52.894Z,99397.23
2023-11-04T21:35:21.111Z,99392.99
2023-11-04T21:37:49.250Z,99394.73
2023-11-04T21:40:17.601Z,99401.06
2023-11-04T21:42:45.921Z,99401.73
2023-11-04T21:45:16.119Z,99405.59
2023-11-04T21:47:45.846Z,99407.92
2023-11-04T21:50:14.242Z,99410.20
2023-11-04T21:52:42.465Z,99406.70
2023-11-04T21:55:10.752Z,99414.63
2023-11-04T21:57:38.914Z,99431.05
2023-11-04T22:00:07.678Z,99435.11
2023-11-04T22:02:35.897Z,99438.82
2023-11-04T22:05:04.376Z,99436.33
2023-11-04T22:07:32.831Z,99440.79
2023-11-04T22:10:01.590Z,99442.02
2023-11-04T22:12:29.824Z,99443.64
2023-11-04T22:14:57.983Z,99447.36
2023-11-04T22:17:26.862Z,99454.27
2023-11-04T22:19:55.223Z,99460.65
2023-11-04T22:22:24.028Z,99468.80
2023-11-04T22:24:52.201Z,99467.07
2023-11-04T22:27:20.330Z,99468.50
2023-11-04T22:29:48.453Z,99462.67
2023-11-04T22:32:16.661Z,99465.52
2023-11-04T22:34:44.937Z,99469.41
2023-11-04T22:37:13.382Z,99465.57
2023-11-04T22:39:41.619Z,99466.30
2023-11-04T22:42:09.815Z,99470.88
2023-11-04T22:44:38.026Z,99467.77
2023-11-04T22:47:06.510Z,99467.61
2023-11-04T22:49:34.750Z,99475.80
2023-11-04T22:52:02.975Z,99493.79
2023-11-04T22:54:31.250Z,99495.58
2023-11-04T22:56:59.438Z,99499.66
2023-11-04T22:59:27.709Z,99500.20
2023-11-04T23:01:55.856Z,99503.55
2023-11-04T23:04:26.037Z,99511.34
2023-11-04T23:06:54.629Z,99525.59
2023-11-04T23:09:22.840Z,99531.02
2023-11-04T23:11:51.144Z,99526.94
2023-11-04T23:14:19.549Z,99531.67
2023-11-04T23:16:47.687Z,99532.02
2023-11-04T23:19:15.903Z,99539.73
2023-11-04T23:21:44.067Z,99537.45
2023-11-04T23:24:12.246Z,99539.77
2023-11-04T23:26:41.179Z,99548.92
2023-11-04T23:29:09.591Z,99555.94
2023-11-04T23:31:37.720Z,99558.12
2023-11-04T23:34:06.897Z,99560.42
2023-11-04T23:36:35.193Z,99560.42
2023-11-04T23:39:03.391Z,99564.85
2023-11-04T23:41:31.608Z,99569.08
2023-11-04T23:43:59.759Z,99572.27
2023-11-04T23:46:27.971Z,99578.48
2023-11-04T23:48:56.209Z,99586.64
2023-11-04T23:51:24.420Z,99594.08
2023-11-04T23:53:52.597Z,99596.77
2023-11-04T23:56:20.778Z,99603.48
2023-11-04T23:58:50.055Z,99604.77
